sensor_id;sensor_type;location;lat;lon;timestamp;P1;durP1;ratioP1;P2;durP2;ratioP2
64459;SDS011;50828;53.756;21.140;2023-05-10T00:02:41;7.60;;;4.20;;
64459;SDS011;50828;53.756;21.140;2023-05-10T00:07:48;7.70;;;3.80;;
64459;SDS011;50828;53.756;21.140;2023-05-10T00:12:56;7.40;;;4.10;;
64459;SDS011;50828;53.756;21.140;2023-05-10T00:18:04;12.50;;;4.50;;
64459;SDS011;50828;53.756;21.140;2023-05-10T00:23:11;10.90;;;4.50;;
64459;SDS011;50828;53.756;21.140;2023-05-10T00:28:19;10.00;;;4.60;;
64459;SDS011;50828;53.756;21.140;2023-05-10T00:33:26;10.60;;;3.90;;
64459;SDS011;50828;53.756;21.140;2023-05-10T00:38:34;5.90;;;3.80;;
64459;SDS011;50828;53.756;21.140;2023-05-10T00:43:41;7.30;;;3.90;;
64459;SDS011;50828;53.756;21.140;2023-05-10T00:48:49;8.40;;;4.00;;
64459;SDS011;50828;53.756;21.140;2023-05-10T00:53:57;8.20;;;4.10;;
64459;SDS011;50828;53.756;21.140;2023-05-10T00:59:05;8.20;;;4.20;;
64459;SDS011;50828;53.756;21.140;2023-05-10T01:04:13;8.20;;;3.20;;
64459;SDS011;50828;53.756;21.140;2023-05-10T01:09:21;8.30;;;4.50;;
64459;SDS011;50828;53.756;21.140;2023-05-10T01:14:30;7.30;;;3.70;;
64459;SDS011;50828;53.756;21.140;2023-05-10T01:19:38;7.50;;;3.90;;
64459;SDS011;50828;53.756;21.140;2023-05-10T01:25:03;9.40;;;4.20;;
64459;SDS011;50828;53.756;21.140;2023-05-10T01:30:52;5.00;;;3.20;;
64459;SDS011;50828;53.756;21.140;2023-05-10T01:36:15;7.00;;;3.80;;
64459;SDS011;50828;53.756;21.140;2023-05-10T01:41:32;9.60;;;3.90;;
64459;SDS011;50828;53.756;21.140;2023-05-10T01:46:46;7.00;;;3.80;;
64459;SDS011;50828;53.756;21.140;2023-05-10T01:52:00;4.80;;;3.60;;
64459;SDS011;50828;53.756;21.140;2023-05-10T01:57:13;9.70;;;3.50;;
64459;SDS011;50828;53.756;21.140;2023-05-10T02:02:22;6.80;;;3.30;;
64459;SDS011;50828;53.756;21.140;2023-05-10T02:07:31;7.50;;;4.00;;
64459;SDS011;50828;53.756;21.140;2023-05-10T02:12:41;5.80;;;3.00;;
64459;SDS011;50828;53.756;21.140;2023-05-10T02:17:51;6.40;;;4.30;;
64459;SDS011;50828;53.756;21.140;2023-05-10T02:23:00;9.10;;;3.50;;
64459;SDS011;50828;53.756;21.140;2023-05-10T02:28:09;6.30;;;3.90;;
64459;SDS011;50828;53.756;21.140;2023-05-10T02:33:19;7.90;;;4.00;;
64459;SDS011;50828;53.756;21.140;2023-05-10T02:38:28;8.60;;;4.30;;
64459;SDS011;50828;53.756;21.140;2023-05-10T02:43:37;7.10;;;3.60;;
64459;SDS011;50828;53.756;21.140;2023-05-10T02:48:47;6.70;;;3.60;;
64459;SDS011;50828;53.756;21.140;2023-05-10T02:53:54;7.50;;;4.40;;
64459;SDS011;50828;53.756;21.140;2023-05-10T02:59:02;6.40;;;4.20;;
64459;SDS011;50828;53.756;21.140;2023-05-10T03:04:10;7.30;;;3.80;;
64459;SDS011;50828;53.756;21.140;2023-05-10T03:09:17;9.40;;;5.30;;
64459;SDS011;50828;53.756;21.140;2023-05-10T03:14:30;22.00;;;7.00;;
64459;SDS011;50828;53.756;21.140;2023-05-10T03:19:51;22.90;;;8.60;;
64459;SDS011;50828;53.756;21.140;2023-05-10T03:25:01;11.20;;;4.80;;
64459;SDS011;50828;53.756;21.140;2023-05-10T03:30:14;9.40;;;4.10;;
64459;SDS011;50828;53.756;21.140;2023-05-10T03:35:23;9.00;;;3.70;;
64459;SDS011;50828;53.756;21.140;2023-05-10T03:40:31;6.60;;;3.50;;
64459;SDS011;50828;53.756;21.140;2023-05-10T03:45:39;8.40;;;3.00;;
64459;SDS011;50828;53.756;21.140;2023-05-10T03:50:46;10.30;;;3.50;;
64459;SDS011;50828;53.756;21.140;2023-05-10T03:55:54;6.60;;;3.50;;
64459;SDS011;50828;53.756;21.140;2023-05-10T04:01:01;6.00;;;3.50;;
64459;SDS011;50828;53.756;21.140;2023-05-10T04:06:09;5.50;;;3.40;;
64459;SDS011;50828;53.756;21.140;2023-05-10T04:11:16;6.20;;;3.40;;
64459;SDS011;50828;53.756;21.140;2023-05-10T04:16:25;6.30;;;3.50;;
64459;SDS011;50828;53.756;21.140;2023-05-10T04:21:33;5.70;;;3.20;;
64459;SDS011;50828;53.756;21.140;2023-05-10T04:26:41;6.70;;;2.90;;
64459;SDS011;50828;53.756;21.140;2023-05-10T04:31:49;6.10;;;3.50;;
64459;SDS011;50828;53.756;21.140;2023-05-10T04:36:57;6.00;;;3.30;;
64459;SDS011;50828;53.756;21.140;2023-05-10T04:42:04;7.80;;;3.70;;
64459;SDS011;50828;53.756;21.140;2023-05-10T04:47:12;7.10;;;4.20;;
64459;SDS011;50828;53.756;21.140;2023-05-10T04:52:19;11.40;;;3.90;;
64459;SDS011;50828;53.756;21.140;2023-05-10T04:57:28;7.10;;;3.40;;
64459;SDS011;50828;53.756;21.140;2023-05-10T05:02:35;5.90;;;3.30;;
64459;SDS011;50828;53.756;21.140;2023-05-10T05:07:42;6.30;;;3.20;;
64459;SDS011;50828;53.756;21.140;2023-05-10T05:12:50;8.20;;;3.30;;
64459;SDS011;50828;53.756;21.140;2023-05-10T05:17:57;8.50;;;3.50;;
64459;SDS011;50828;53.756;21.140;2023-05-10T05:23:05;5.90;;;3.10;;
64459;SDS011;50828;53.756;21.140;2023-05-10T05:28:13;5.10;;;3.20;;
64459;SDS011;50828;53.756;21.140;2023-05-10T05:33:20;5.80;;;3.20;;
64459;SDS011;50828;53.756;21.140;2023-05-10T05:38:28;7.20;;;3.80;;
64459;SDS011;50828;53.756;21.140;2023-05-10T05:43:35;7.90;;;3.10;;
64459;SDS011;50828;53.756;21.140;2023-05-10T05:48:43;5.70;;;3.10;;
64459;SDS011;50828;53.756;21.140;2023-05-10T05:53:50;5.30;;;3.10;;
64459;SDS011;50828;53.756;21.140;2023-05-10T05:58:58;5.00;;;3.10;;
64459;SDS011;50828;53.756;21.140;2023-05-10T06:04:05;5.50;;;2.70;;
64459;SDS011;50828;53.756;21.140;2023-05-10T06:09:13;4.80;;;2.80;;
64459;SDS011;50828;53.756;21.140;2023-05-10T06:14:21;6.60;;;2.80;;
64459;SDS011;50828;53.756;21.140;2023-05-10T06:19:29;5.50;;;3.10;;
64459;SDS011;50828;53.756;21.140;2023-05-10T06:24:36;6.70;;;3.10;;
64459;SDS011;50828;53.756;21.140;2023-05-10T06:29:44;7.80;;;2.70;;
64459;SDS011;50828;53.756;21.140;2023-05-10T06:34:58;5.40;;;2.70;;
64459;SDS011;50828;53.756;21.140;2023-05-10T06:40:07;5.00;;;2.30;;
64459;SDS011;50828;53.756;21.140;2023-05-10T06:45:15;4.50;;;2.60;;
64459;SDS011;50828;53.756;21.140;2023-05-10T06:50:24;6.30;;;2.70;;
64459;SDS011;50828;53.756;21.140;2023-05-10T06:55:32;5.50;;;2.70;;
64459;SDS011;50828;53.756;21.140;2023-05-10T07:00:39;7.20;;;2.80;;
64459;SDS011;50828;53.756;21.140;2023-05-10T07:05:49;6.00;;;3.00;;
64459;SDS011;50828;53.756;21.140;2023-05-10T07:11:00;5.60;;;2.50;;
64459;SDS011;50828;53.756;21.140;2023-05-10T07:16:10;7.80;;;2.80;;
64459;SDS011;50828;53.756;21.140;2023-05-10T07:21:18;7.40;;;3.00;;
64459;SDS011;50828;53.756;21.140;2023-05-10T07:26:27;5.60;;;3.30;;
64459;SDS011;50828;53.756;21.140;2023-05-10T07:31:35;4.90;;;2.70;;
64459;SDS011;50828;53.756;21.140;2023-05-10T07:36:45;7.50;;;2.70;;
64459;SDS011;50828;53.756;21.140;2023-05-10T07:41:53;8.20;;;3.30;;
64459;SDS011;50828;53.756;21.140;2023-05-10T07:47:00;4.90;;;2.80;;
64459;SDS011;50828;53.756;21.140;2023-05-10T07:52:08;4.30;;;2.50;;
64459;SDS011;50828;53.756;21.140;2023-05-10T07:57:15;7.80;;;2.70;;
64459;SDS011;50828;53.756;21.140;2023-05-10T08:08:18;5.80;;;2.30;;
64459;SDS011;50828;53.756;21.140;2023-05-10T08:13:26;5.00;;;2.40;;
64459;SDS011;50828;53.756;21.140;2023-05-10T08:18:35;4.80;;;2.90;;
64459;SDS011;50828;53.756;21.140;2023-05-10T08:23:43;5.90;;;2.40;;
64459;SDS011;50828;53.756;21.140;2023-05-10T08:28:50;7.60;;;2.80;;
64459;SDS011;50828;53.756;21.140;2023-05-10T08:33:58;4.70;;;2.70;;
64459;SDS011;50828;53.756;21.140;2023-05-10T08:39:05;5.90;;;2.40;;
64459;SDS011;50828;53.756;21.140;2023-05-10T08:44:29;4.10;;;2.40;;
64459;SDS011;50828;53.756;21.140;2023-05-10T08:49:39;5.20;;;2.70;;
64459;SDS011;50828;53.756;21.140;2023-05-10T08:54:48;6.10;;;2.70;;
64459;SDS011;50828;53.756;21.140;2023-05-10T08:59:56;3.90;;;2.50;;
64459;SDS011;50828;53.756;21.140;2023-05-10T09:05:08;4.50;;;2.30;;
64459;SDS011;50828;53.756;21.140;2023-05-10T09:10:15;4.30;;;3.00;;
64459;SDS011;50828;53.756;21.140;2023-05-10T09:15:24;4.00;;;2.80;;
64459;SDS011;50828;53.756;21.140;2023-05-10T09:20:31;10.00;;;2.70;;
64459;SDS011;50828;53.756;21.140;2023-05-10T09:25:39;5.60;;;2.90;;
64459;SDS011;50828;53.756;21.140;2023-05-10T09:30:48;4.20;;;2.50;;
64459;SDS011;50828;53.756;21.140;2023-05-10T09:36:07;4.50;;;2.30;;
64459;SDS011;50828;53.756;21.140;2023-05-10T09:41:19;4.40;;;2.50;;
64459;SDS011;50828;53.756;21.140;2023-05-10T09:46:28;8.20;;;2.60;;
64459;SDS011;50828;53.756;21.140;2023-05-10T09:51:40;6.70;;;2.80;;
64459;SDS011;50828;53.756;21.140;2023-05-10T09:56:48;6.20;;;2.80;;
64459;SDS011;50828;53.756;21.140;2023-05-10T10:01:57;5.70;;;2.80;;
64459;SDS011;50828;53.756;21.140;2023-05-10T10:07:06;10.70;;;3.30;;
64459;SDS011;50828;53.756;21.140;2023-05-10T10:12:13;8.50;;;3.20;;
64459;SDS011;50828;53.756;21.140;2023-05-10T10:17:21;8.70;;;2.70;;
64459;SDS011;50828;53.756;21.140;2023-05-10T10:22:30;12.40;;;3.50;;
64459;SDS011;50828;53.756;21.140;2023-05-10T10:27:39;4.90;;;2.20;;
64459;SDS011;50828;53.756;21.140;2023-05-10T10:33:01;9.20;;;2.90;;
64459;SDS011;50828;53.756;21.140;2023-05-10T10:38:37;6.70;;;2.70;;
64459;SDS011;50828;53.756;21.140;2023-05-10T10:49:33;4.30;;;2.10;;
64459;SDS011;50828;53.756;21.140;2023-05-10T10:54:57;4.70;;;2.80;;
64459;SDS011;50828;53.756;21.140;2023-05-10T11:00:23;5.70;;;2.60;;
64459;SDS011;50828;53.756;21.140;2023-05-10T11:10:52;4.00;;;2.60;;
64459;SDS011;50828;53.756;21.140;2023-05-10T11:16:15;5.40;;;2.70;;
64459;SDS011;50828;53.756;21.140;2023-05-10T11:21:24;7.30;;;2.50;;
64459;SDS011;50828;53.756;21.140;2023-05-10T11:26:33;9.70;;;2.70;;
64459;SDS011;50828;53.756;21.140;2023-05-10T11:31:45;5.00;;;2.40;;
64459;SDS011;50828;53.756;21.140;2023-05-10T11:36:53;9.50;;;2.70;;
64459;SDS011;50828;53.756;21.140;2023-05-10T11:42:02;5.80;;;2.50;;
64459;SDS011;50828;53.756;21.140;2023-05-10T11:47:12;5.30;;;2.40;;
64459;SDS011;50828;53.756;21.140;2023-05-10T11:52:20;6.60;;;2.30;;
64459;SDS011;50828;53.756;21.140;2023-05-10T11:57:30;7.00;;;2.50;;
64459;SDS011;50828;53.756;21.140;2023-05-10T12:02:37;6.50;;;2.40;;
64459;SDS011;50828;53.756;21.140;2023-05-10T12:07:46;7.20;;;2.40;;
64459;SDS011;50828;53.756;21.140;2023-05-10T12:12:54;5.90;;;2.90;;
64459;SDS011;50828;53.756;21.140;2023-05-10T12:18:03;5.80;;;2.70;;
64459;SDS011;50828;53.756;21.140;2023-05-10T12:23:12;6.00;;;2.50;;
64459;SDS011;50828;53.756;21.140;2023-05-10T12:28:20;5.10;;;2.40;;
64459;SDS011;50828;53.756;21.140;2023-05-10T12:33:28;5.30;;;2.50;;
64459;SDS011;50828;53.756;21.140;2023-05-10T12:38:46;4.60;;;2.40;;
64459;SDS011;50828;53.756;21.140;2023-05-10T12:43:55;5.70;;;2.20;;
64459;SDS011;50828;53.756;21.140;2023-05-10T12:49:03;12.10;;;2.90;;
64459;SDS011;50828;53.756;21.140;2023-05-10T12:54:12;6.80;;;2.70;;
64459;SDS011;50828;53.756;21.140;2023-05-10T12:59:20;5.20;;;2.60;;
64459;SDS011;50828;53.756;21.140;2023-05-10T13:04:27;3.90;;;2.30;;
64459;SDS011;50828;53.756;21.140;2023-05-10T13:09:35;6.10;;;2.90;;
64459;SDS011;50828;53.756;21.140;2023-05-10T13:14:43;7.40;;;3.10;;
64459;SDS011;50828;53.756;21.140;2023-05-10T13:19:51;8.80;;;2.80;;
64459;SDS011;50828;53.756;21.140;2023-05-10T13:24:58;6.30;;;2.70;;
64459;SDS011;50828;53.756;21.140;2023-05-10T13:30:07;7.40;;;2.60;;
64459;SDS011;50828;53.756;21.140;2023-05-10T13:35:16;8.70;;;3.10;;
64459;SDS011;50828;53.756;21.140;2023-05-10T13:40:24;8.50;;;2.60;;
64459;SDS011;50828;53.756;21.140;2023-05-10T13:45:32;5.20;;;2.70;;
64459;SDS011;50828;53.756;21.140;2023-05-10T13:50:39;6.00;;;2.90;;
64459;SDS011;50828;53.756;21.140;2023-05-10T13:55:48;5.50;;;2.60;;
64459;SDS011;50828;53.756;21.140;2023-05-10T14:00:56;7.10;;;2.80;;
64459;SDS011;50828;53.756;21.140;2023-05-10T14:06:05;3.60;;;2.30;;
64459;SDS011;50828;53.756;21.140;2023-05-10T14:11:13;7.80;;;2.90;;
64459;SDS011;50828;53.756;21.140;2023-05-10T14:16:21;5.00;;;2.50;;
64459;SDS011;50828;53.756;21.140;2023-05-10T14:21:30;4.90;;;2.80;;
64459;SDS011;50828;53.756;21.140;2023-05-10T14:26:39;6.70;;;2.60;;
64459;SDS011;50828;53.756;21.140;2023-05-10T14:31:46;8.50;;;3.00;;
64459;SDS011;50828;53.756;21.140;2023-05-10T14:36:55;5.70;;;2.90;;
64459;SDS011;50828;53.756;21.140;2023-05-10T14:42:05;7.90;;;3.00;;
64459;SDS011;50828;53.756;21.140;2023-05-10T14:47:13;5.80;;;3.00;;
64459;SDS011;50828;53.756;21.140;2023-05-10T14:52:21;7.80;;;3.10;;
64459;SDS011;50828;53.756;21.140;2023-05-10T14:57:28;8.00;;;3.20;;
64459;SDS011;50828;53.756;21.140;2023-05-10T15:02:37;8.10;;;2.90;;
64459;SDS011;50828;53.756;21.140;2023-05-10T15:07:46;5.00;;;3.10;;
64459;SDS011;50828;53.756;21.140;2023-05-10T15:12:54;9.00;;;3.60;;
64459;SDS011;50828;53.756;21.140;2023-05-10T15:18:02;6.00;;;3.00;;
64459;SDS011;50828;53.756;21.140;2023-05-10T15:23:10;7.10;;;2.90;;
64459;SDS011;50828;53.756;21.140;2023-05-10T15:28:19;5.90;;;3.40;;
64459;SDS011;50828;53.756;21.140;2023-05-10T15:33:26;6.70;;;2.90;;
64459;SDS011;50828;53.756;21.140;2023-05-10T15:38:34;6.40;;;3.20;;
64459;SDS011;50828;53.756;21.140;2023-05-10T15:43:42;5.80;;;3.20;;
64459;SDS011;50828;53.756;21.140;2023-05-10T15:48:50;5.90;;;3.40;;
64459;SDS011;50828;53.756;21.140;2023-05-10T15:53:58;7.30;;;3.10;;
64459;SDS011;50828;53.756;21.140;2023-05-10T15:59:10;5.10;;;2.90;;
64459;SDS011;50828;53.756;21.140;2023-05-10T16:04:18;8.00;;;2.80;;
64459;SDS011;50828;53.756;21.140;2023-05-10T16:09:27;9.30;;;3.40;;
64459;SDS011;50828;53.756;21.140;2023-05-10T16:14:34;5.10;;;3.00;;
64459;SDS011;50828;53.756;21.140;2023-05-10T16:19:43;8.60;;;2.90;;
64459;SDS011;50828;53.756;21.140;2023-05-10T16:24:51;4.80;;;3.30;;
64459;SDS011;50828;53.756;21.140;2023-05-10T16:29:59;7.20;;;2.90;;
64459;SDS011;50828;53.756;21.140;2023-05-10T16:35:10;8.20;;;2.80;;
64459;SDS011;50828;53.756;21.140;2023-05-10T16:40:19;4.40;;;2.80;;
64459;SDS011;50828;53.756;21.140;2023-05-10T16:45:27;6.10;;;3.40;;
64459;SDS011;50828;53.756;21.140;2023-05-10T16:50:37;8.10;;;3.60;;
64459;SDS011;50828;53.756;21.140;2023-05-10T16:55:47;4.70;;;2.90;;
64459;SDS011;50828;53.756;21.140;2023-05-10T17:00:56;7.80;;;3.00;;
64459;SDS011;50828;53.756;21.140;2023-05-10T17:06:05;6.70;;;3.10;;
64459;SDS011;50828;53.756;21.140;2023-05-10T17:11:14;4.90;;;2.60;;
64459;SDS011;50828;53.756;21.140;2023-05-10T17:16:25;4.50;;;2.90;;
64459;SDS011;50828;53.756;21.140;2023-05-10T17:21:34;8.20;;;3.10;;
64459;SDS011;50828;53.756;21.140;2023-05-10T17:26:42;8.00;;;2.70;;
64459;SDS011;50828;53.756;21.140;2023-05-10T17:31:49;9.70;;;3.50;;
64459;SDS011;50828;53.756;21.140;2023-05-10T17:36:57;5.70;;;3.10;;
64459;SDS011;50828;53.756;21.140;2023-05-10T17:42:05;4.70;;;3.10;;
64459;SDS011;50828;53.756;21.140;2023-05-10T17:47:13;5.60;;;3.10;;
64459;SDS011;50828;53.756;21.140;2023-05-10T17:52:21;8.80;;;3.00;;
64459;SDS011;50828;53.756;21.140;2023-05-10T17:57:30;7.00;;;3.30;;
64459;SDS011;50828;53.756;21.140;2023-05-10T18:02:37;4.80;;;2.90;;
64459;SDS011;50828;53.756;21.140;2023-05-10T18:07:45;7.30;;;3.60;;
64459;SDS011;50828;53.756;21.140;2023-05-10T18:12:53;6.00;;;3.00;;
64459;SDS011;50828;53.756;21.140;2023-05-10T18:18:02;6.40;;;3.00;;
64459;SDS011;50828;53.756;21.140;2023-05-10T18:23:10;7.70;;;3.50;;
64459;SDS011;50828;53.756;21.140;2023-05-10T18:28:18;13.40;;;5.80;;
64459;SDS011;50828;53.756;21.140;2023-05-10T18:33:30;16.00;;;5.30;;
64459;SDS011;50828;53.756;21.140;2023-05-10T18:38:38;6.20;;;3.70;;
64459;SDS011;50828;53.756;21.140;2023-05-10T18:43:46;5.60;;;3.30;;
64459;SDS011;50828;53.756;21.140;2023-05-10T18:48:58;44.70;;;16.50;;
64459;SDS011;50828;53.756;21.140;2023-05-10T18:54:06;56.20;;;25.30;;
64459;SDS011;50828;53.756;21.140;2023-05-10T18:59:14;104.00;;;32.60;;
64459;SDS011;50828;53.756;21.140;2023-05-10T19:04:22;112.20;;;31.70;;
64459;SDS011;50828;53.756;21.140;2023-05-10T19:09:30;54.60;;;20.10;;
64459;SDS011;50828;53.756;21.140;2023-05-10T19:14:38;24.80;;;9.30;;
64459;SDS011;50828;53.756;21.140;2023-05-10T19:19:46;12.80;;;5.20;;
64459;SDS011;50828;53.756;21.140;2023-05-10T19:24:54;8.80;;;3.80;;
64459;SDS011;50828;53.756;21.140;2023-05-10T19:30:01;6.30;;;3.80;;
64459;SDS011;50828;53.756;21.140;2023-05-10T19:35:10;7.80;;;4.10;;
64459;SDS011;50828;53.756;21.140;2023-05-10T19:40:18;10.10;;;3.70;;
64459;SDS011;50828;53.756;21.140;2023-05-10T19:45:26;17.00;;;5.20;;
64459;SDS011;50828;53.756;21.140;2023-05-10T19:50:33;12.00;;;3.90;;
64459;SDS011;50828;53.756;21.140;2023-05-10T19:55:41;9.40;;;4.90;;
64459;SDS011;50828;53.756;21.140;2023-05-10T20:00:49;8.70;;;4.40;;
64459;SDS011;50828;53.756;21.140;2023-05-10T20:05:58;7.90;;;4.30;;
64459;SDS011;50828;53.756;21.140;2023-05-10T20:11:06;9.30;;;4.20;;
64459;SDS011;50828;53.756;21.140;2023-05-10T20:16:13;7.00;;;4.40;;
64459;SDS011;50828;53.756;21.140;2023-05-10T20:21:21;8.20;;;4.30;;
64459;SDS011;50828;53.756;21.140;2023-05-10T20:26:29;10.00;;;5.50;;
64459;SDS011;50828;53.756;21.140;2023-05-10T20:31:37;18.40;;;7.50;;
64459;SDS011;50828;53.756;21.140;2023-05-10T20:36:45;20.20;;;8.30;;
64459;SDS011;50828;53.756;21.140;2023-05-10T20:41:52;19.00;;;8.70;;
64459;SDS011;50828;53.756;21.140;2023-05-10T20:47:00;15.80;;;8.30;;
64459;SDS011;50828;53.756;21.140;2023-05-10T20:52:08;13.70;;;7.10;;
64459;SDS011;50828;53.756;21.140;2023-05-10T20:57:15;12.20;;;6.90;;
64459;SDS011;50828;53.756;21.140;2023-05-10T21:02:24;12.80;;;6.60;;
64459;SDS011;50828;53.756;21.140;2023-05-10T21:07:32;10.60;;;6.00;;
64459;SDS011;50828;53.756;21.140;2023-05-10T21:12:40;11.90;;;5.60;;
64459;SDS011;50828;53.756;21.140;2023-05-10T21:17:47;13.20;;;5.50;;
64459;SDS011;50828;53.756;21.140;2023-05-10T21:22:56;8.20;;;4.60;;
64459;SDS011;50828;53.756;21.140;2023-05-10T21:28:04;11.20;;;4.80;;
64459;SDS011;50828;53.756;21.140;2023-05-10T21:33:12;9.40;;;5.10;;
64459;SDS011;50828;53.756;21.140;2023-05-10T21:38:20;10.30;;;4.90;;
64459;SDS011;50828;53.756;21.140;2023-05-10T21:43:28;9.50;;;4.70;;
64459;SDS011;50828;53.756;21.140;2023-05-10T21:48:35;10.90;;;4.80;;
64459;SDS011;50828;53.756;21.140;2023-05-10T21:53:43;9.40;;;4.10;;
64459;SDS011;50828;53.756;21.140;2023-05-10T21:58:50;8.70;;;5.10;;
64459;SDS011;50828;53.756;21.140;2023-05-10T22:03:58;10.80;;;5.80;;
64459;SDS011;50828;53.756;21.140;2023-05-10T22:09:06;9.90;;;5.30;;
64459;SDS011;50828;53.756;21.140;2023-05-10T22:14:14;12.00;;;4.90;;
64459;SDS011;50828;53.756;21.140;2023-05-10T22:19:22;10.20;;;4.70;;
64459;SDS011;50828;53.756;21.140;2023-05-10T22:24:31;10.30;;;4.60;;
64459;SDS011;50828;53.756;21.140;2023-05-10T22:29:38;9.70;;;4.50;;
64459;SDS011;50828;53.756;21.140;2023-05-10T22:34:46;6.50;;;4.20;;
64459;SDS011;50828;53.756;21.140;2023-05-10T22:39:53;8.10;;;4.80;;
64459;SDS011;50828;53.756;21.140;2023-05-10T22:45:00;13.00;;;5.20;;
64459;SDS011;50828;53.756;21.140;2023-05-10T22:50:09;10.30;;;4.70;;
64459;SDS011;50828;53.756;21.140;2023-05-10T22:55:19;7.70;;;4.50;;
64459;SDS011;50828;53.756;21.140;2023-05-10T23:00:26;8.00;;;4.40;;
64459;SDS011;50828;53.756;21.140;2023-05-10T23:05:34;9.60;;;4.40;;
64459;SDS011;50828;53.756;21.140;2023-05-10T23:10:41;8.40;;;4.90;;
64459;SDS011;50828;53.756;21.140;2023-05-10T23:15:49;8.80;;;4.80;;
64459;SDS011;50828;53.756;21.140;2023-05-10T23:20:57;11.80;;;5.00;;
64459;SDS011;50828;53.756;21.140;2023-05-10T23:26:05;10.50;;;5.10;;
64459;SDS011;50828;53.756;21.140;2023-05-10T23:31:13;8.80;;;5.20;;
64459;SDS011;50828;53.756;21.140;2023-05-10T23:36:21;13.50;;;5.60;;
64459;SDS011;50828;53.756;21.140;2023-05-10T23:41:28;11.10;;;5.70;;
64459;SDS011;50828;53.756;21.140;2023-05-10T23:46:36;11.70;;;5.70;;
64459;SDS011;50828;53.756;21.140;2023-05-10T23:51:43;10.60;;;5.80;;
64459;SDS011;50828;53.756;21.140;2023-05-10T23:56:51;10.40;;;5.30;;
